Time;durP1;ratioP1;P1;durP2;ratioP2;P2;SDS_P1;SDS_P2;PMS_P1;PMS_P2;Temp;Humidity;BMP_temperature;BMP_pressure;BME280_temperature;BME280_humidity;BME280_pressure;Samples;Min_cycle;Max_cycle;Signal;HPM_P1;HPM_P2
2022/06/07 00:00:35;;;;;;;1.85;1.73;;;14.20;99.90;;;;;;4359371;28;10000719;-81
2022/06/07 00:03:01;;;;;;;2.08;1.98;;;14.20;99.90;;;;;;5013574;28;20285;-81
2022/06/07 00:05:28;;;;;;;4.82;1.80;;;14.20;99.90;;;;;;5023571;28;20486;-82
2022/06/07 00:07:54;;;;;;;2.63;1.95;;;14.20;99.90;;;;;;5019830;28;20037;-82
2022/06/07 00:10:21;;;;;;;4.88;2.10;;;14.20;99.90;;;;;;5019884;28;20049;-82
2022/06/07 00:12:46;;;;;;;3.97;1.95;;;14.20;99.90;;;;;;5022274;28;20088;-82
2022/06/07 00:15:12;;;;;;;2.80;1.73;;;14.10;99.90;;;;;;5023902;28;20030;-82
2022/06/07 00:17:38;;;;;;;2.13;1.85;;;14.20;99.90;;;;;;5016794;28;20452;-81
2022/06/07 00:20:05;;;;;;;2.25;1.80;;;14.20;99.90;;;;;;5015213;28;20326;-82
2022/06/07 00:22:31;;;;;;;3.05;1.65;;;14.10;99.90;;;;;;5024733;28;20091;-82
2022/06/07 00:24:57;;;;;;;3.00;1.70;;;14.10;99.90;;;;;;5015053;28;20057;-82
2022/06/07 00:27:24;;;;;;;3.20;2.00;;;14.10;99.90;;;;;;5019097;28;20052;-82
2022/06/07 00:29:50;;;;;;;1.98;1.80;;;14.10;99.90;;;;;;5018976;28;20026;-82
2022/06/07 00:32:18;;;;;;;2.00;1.80;;;14.00;99.90;;;;;;5024717;28;20038;-82
2022/06/07 00:34:44;;;;;;;2.08;1.80;;;14.00;99.90;;;;;;5021008;28;20072;-82
2022/06/07 00:37:10;;;;;;;1.92;1.70;;;14.00;99.90;;;;;;5026423;28;20447;-82
2022/06/07 00:39:35;;;;;;;2.55;1.73;;;14.00;99.90;;;;;;5020534;28;20470;-82
2022/06/07 00:42:01;;;;;;;2.03;1.50;;;13.90;99.90;;;;;;5017256;28;20469;-82
2022/06/07 00:44:34;;;;;;;3.13;1.80;;;13.90;99.90;;;;;;5021759;28;20124;-82
2022/06/07 00:47:01;;;;;;;;;;;13.90;99.90;;;;;;5024676;28;20505;-82
2022/06/07 00:49:30;;;;;;;2.22;1.85;;;13.80;99.90;;;;;;5017719;28;20001;-82
2022/06/07 00:51:56;;;;;;;1.75;1.65;;;13.80;99.90;;;;;;5008137;28;20036;-82
2022/06/07 00:54:26;;;;;;;2.60;1.88;;;13.70;99.90;;;;;;5017299;28;20025;-82
2022/06/07 00:56:52;;;;;;;3.30;1.77;;;13.60;99.90;;;;;;5024402;28;20029;-82
2022/06/07 00:59:18;;;;;;;1.83;1.70;;;13.60;99.90;;;;;;5013568;28;20033;-82
2022/06/07 01:01:44;;;;;;;2.25;1.67;;;13.50;99.90;;;;;;5023171;28;20028;-82
2022/06/07 01:04:09;;;;;;;2.65;1.60;;;13.50;99.90;;;;;;5023803;28;20402;-82
2022/06/07 01:12:04;;;;;;;3.65;2.58;;;13.40;99.90;;;;;;5022339;28;20229;-82
2022/06/07 01:14:30;;;;;;;2.83;2.45;;;13.40;99.90;;;;;;5020650;28;20030;-82
2022/06/07 01:16:56;;;;;;;3.33;2.35;;;13.30;99.90;;;;;;5013438;28;20095;-81
2022/06/07 01:19:21;;;;;;;4.57;2.28;;;13.30;99.90;;;;;;5023778;28;20031;-81
2022/06/07 01:21:47;;;;;;;2.58;1.90;;;13.30;99.90;;;;;;5011094;28;20301;-82
2022/06/07 01:24:15;;;;;;;4.32;2.10;;;13.20;99.90;;;;;;5010751;28;20021;-81
2022/06/07 01:26:41;;;;;;;2.85;2.35;;;13.20;99.90;;;;;;5019529;28;20076;-81
2022/06/07 01:29:07;;;;;;;2.30;2.10;;;13.20;99.90;;;;;;5022417;28;20474;-82
2022/06/07 01:31:33;;;;;;;2.38;2.15;;;13.10;99.90;;;;;;5025104;28;20063;-82
2022/06/07 01:34:00;;;;;;;3.30;2.30;;;13.10;99.90;;;;;;5024333;28;20324;-81
2022/06/07 01:36:26;;;;;;;2.53;2.00;;;13.10;99.90;;;;;;5024497;28;20033;-82
2022/06/07 01:41:55;;;;;;;2.97;2.20;;;13.10;99.90;;;;;;5013260;28;20087;-81
2022/06/07 01:44:22;;;;;;;2.60;2.15;;;13.00;99.90;;;;;;5024952;28;20488;-82
2022/06/07 01:46:48;;;;;;;3.15;2.10;;;13.00;99.90;;;;;;5021505;28;20065;-82
2022/06/07 01:49:15;;;;;;;2.15;1.95;;;12.90;99.90;;;;;;5018553;28;20034;-82
2022/06/07 01:51:41;;;;;;;2.40;2.20;;;12.90;99.90;;;;;;5016153;28;20032;-82
2022/06/07 01:54:08;;;;;;;2.42;2.22;;;12.90;99.90;;;;;;5019863;28;20525;-81
2022/06/07 01:56:35;;;;;;;3.08;1.70;;;12.90;99.90;;;;;;5027751;28;20449;-82
2022/06/07 01:59:01;;;;;;;2.08;1.88;;;12.80;99.90;;;;;;5024815;28;20474;-81
2022/06/07 02:01:27;;;;;;;2.10;1.90;;;12.80;99.90;;;;;;5027032;28;20048;-82
2022/06/07 02:03:52;;;;;;;2.00;1.80;;;12.70;99.90;;;;;;5025518;28;20034;-82
2022/06/07 02:06:18;;;;;;;2.13;2.03;;;12.70;99.90;;;;;;5017874;28;20307;-81
2022/06/07 02:08:43;;;;;;;1.92;1.77;;;12.70;99.90;;;;;;5027436;28;20036;-82
2022/06/07 02:11:19;;;;;;;2.33;2.00;;;12.60;99.90;;;;;;5026105;28;20398;-82
2022/06/07 02:13:46;;;;;;;2.03;1.83;;;12.60;99.90;;;;;;5023678;28;20393;-81
2022/06/07 02:16:13;;;;;;;3.53;1.98;;;12.60;99.90;;;;;;5029724;28;20517;-82
2022/06/07 02:18:39;;;;;;;3.10;1.60;;;12.50;99.90;;;;;;5027374;28;20017;-82
2022/06/07 02:21:06;;;;;;;1.90;1.80;;;12.50;99.90;;;;;;5028082;28;20516;-82
2022/06/07 02:23:34;;;;;;;2.20;1.70;;;12.50;99.90;;;;;;5027964;28;20038;-82
2022/06/07 02:26:03;;;;;;;2.17;1.70;;;12.50;99.90;;;;;;5025336;28;20025;-82
2022/06/07 02:28:34;;;;;;;2.15;1.95;;;12.40;99.90;;;;;;5025316;28;20488;-82
2022/06/07 02:31:00;;;;;;;2.47;2.08;;;12.40;99.90;;;;;;5019906;28;20473;-82
2022/06/07 02:33:27;;;;;;;3.05;1.90;;;12.40;99.90;;;;;;5015261;28;20509;-81
2022/06/07 02:35:53;;;;;;;3.15;2.00;;;12.40;99.90;;;;;;5015663;28;20040;-81
2022/06/07 02:38:20;;;;;;;1.95;1.85;;;12.40;99.90;;;;;;5026496;28;20302;-82
2022/06/07 02:40:48;;;;;;;3.42;1.65;;;12.40;99.90;;;;;;5010184;28;20125;-82
2022/06/07 02:43:14;;;;;;;2.33;1.80;;;12.40;99.90;;;;;;5027759;28;20030;-81
2022/06/07 02:45:39;;;;;;;1.90;1.70;;;12.30;99.90;;;;;;5025854;28;20022;-82
2022/06/07 02:48:06;;;;;;;1.90;1.70;;;12.30;99.90;;;;;;5026879;28;20030;-81
2022/06/07 02:50:32;;;;;;;2.40;2.00;;;12.30;99.90;;;;;;5013068;28;20288;-81
2022/06/07 02:52:57;;;;;;;2.58;2.20;;;12.40;99.90;;;;;;5027509;28;20042;-82
2022/06/07 02:55:24;;;;;;;2.63;2.30;;;12.50;99.90;;;;;;5027688;28;20477;-82
2022/06/07 02:57:50;;;;;;;2.50;2.30;;;12.40;99.90;;;;;;5016611;28;20025;-81
2022/06/07 03:00:16;;;;;;;3.50;2.40;;;12.40;99.90;;;;;;5023999;28;20091;-82
2022/06/07 03:02:43;;;;;;;2.22;1.85;;;12.40;99.90;;;;;;5018057;28;20120;-81
2022/06/07 03:05:11;;;;;;;2.70;2.30;;;12.40;99.90;;;;;;5027143;28;20532;-81
2022/06/07 03:07:38;;;;;;;2.38;2.08;;;12.40;99.90;;;;;;5022709;28;20025;-81
2022/06/07 03:10:05;;;;;;;2.40;2.20;;;12.40;99.90;;;;;;5015531;28;20026;-81
2022/06/07 03:12:32;;;;;;;3.50;2.25;;;12.40;99.90;;;;;;5015151;28;20485;-82
2022/06/07 03:14:58;;;;;;;2.72;2.10;;;12.40;99.90;;;;;;5026230;28;20325;-82
2022/06/07 03:17:24;;;;;;;2.67;2.28;;;12.30;99.90;;;;;;5028145;28;20396;-82
2022/06/07 03:19:50;;;;;;;3.03;2.65;;;12.40;99.90;;;;;;5017600;28;20116;-81
2022/06/07 03:22:20;;;;;;;2.67;2.30;;;12.40;99.90;;;;;;5014631;28;20037;-81
2022/06/07 03:24:45;;;;;;;2.50;2.30;;;12.30;99.90;;;;;;5023645;28;20029;-81
2022/06/07 03:27:12;;;;;;;3.05;2.40;;;12.30;99.90;;;;;;5028234;28;20029;-81
2022/06/07 03:29:38;;;;;;;6.10;2.70;;;12.30;99.90;;;;;;5023388;28;20035;-82
2022/06/07 03:32:06;;;;;;;3.78;2.35;;;12.30;99.90;;;;;;5024302;28;20022;-80
2022/06/07 03:34:32;;;;;;;4.97;2.63;;;12.30;99.90;;;;;;5015068;28;20040;-81
2022/06/07 03:36:58;;;;;;;2.75;2.33;;;12.30;99.90;;;;;;5008377;28;20037;-81
2022/06/07 03:39:23;;;;;;;2.80;2.33;;;12.30;99.90;;;;;;5009397;28;20113;-81
2022/06/07 03:41:49;;;;;;;5.72;2.47;;;12.40;99.90;;;;;;5015817;28;20060;-81
2022/06/07 03:44:14;;;;;;;2.47;2.28;;;12.40;99.90;;;;;;5021636;28;20109;-81
2022/06/07 03:46:43;;;;;;;6.68;2.45;;;12.50;99.90;;;;;;5011638;28;20033;-81
2022/06/07 03:49:08;;;;;;;3.10;2.40;;;12.50;99.90;;;;;;5024476;28;20113;-81
2022/06/07 03:51:34;;;;;;;2.70;2.50;;;12.50;99.90;;;;;;5025605;28;20104;-80
2022/06/07 03:54:00;;;;;;;2.67;2.35;;;12.50;99.90;;;;;;5023316;28;20117;-81
2022/06/07 03:56:26;;;;;;;3.90;2.47;;;12.60;99.90;;;;;;5026276;28;20021;-81
2022/06/07 03:58:52;;;;;;;15.70;2.80;;;12.60;99.90;;;;;;5019690;28;20084;-81
2022/06/07 04:01:20;;;;;;;3.88;2.47;;;12.70;99.90;;;;;;5017918;28;20173;-81
2022/06/07 04:03:48;;;;;;;5.82;3.03;;;12.70;99.90;;;;;;5027068;28;20025;-81
2022/06/07 04:06:27;;;;;;;3.45;2.60;;;12.70;99.90;;;;;;5025825;28;20338;-81
2022/06/07 04:08:53;;;;;;;8.02;3.05;;;12.80;99.90;;;;;;5023254;28;20111;-81
2022/06/07 04:11:21;;;;;;;5.05;2.88;;;12.80;99.90;;;;;;5011140;28;20026;-81
2022/06/07 04:13:48;;;;;;;2.75;2.55;;;12.90;99.90;;;;;;5024982;28;20502;-81
2022/06/07 04:16:16;;;;;;;3.08;2.70;;;12.90;99.90;;;;;;5022716;28;20037;-81
2022/06/07 04:18:42;;;;;;;3.55;2.80;;;12.90;99.90;;;;;;5014501;28;20049;-81
2022/06/07 04:21:09;;;;;;;3.72;2.88;;;12.80;99.90;;;;;;5024011;28;20036;-81
2022/06/07 04:23:35;;;;;;;2.92;2.65;;;12.80;99.90;;;;;;5025092;28;20533;-81
2022/06/07 04:26:22;;;;;;;5.68;2.50;;;12.80;99.90;;;;;;5026802;28;20121;-81
2022/06/07 04:28:48;;;;;;;3.85;2.55;;;12.80;99.90;;;;;;5020842;28;20254;-82
2022/06/07 04:31:20;;;;;;;2.95;2.60;;;12.90;99.90;;;;;;5024502;28;20021;-82
2022/06/07 04:33:47;;;;;;;3.10;2.50;;;13.10;99.90;;;;;;5024958;28;20156;-82
2022/06/07 04:36:18;;;;;;;4.22;2.63;;;13.40;99.90;;;;;;5024667;28;20033;-82
2022/06/07 04:38:45;;;;;;;3.83;2.38;;;;;;;;;;5018930;28;20053;-81
2022/06/07 04:41:12;;;;;;;3.05;2.58;;;;;;;;;;5013053;28;20029;-81
2022/06/07 04:43:38;;;;;;;2.97;2.00;;;;;;;;;;5024242;28;20393;-81
2022/06/07 04:46:05;;;;;;;2.83;2.40;;;;;;;;;;5011725;28;20014;-82
2022/06/07 04:48:31;;;;;;;3.72;2.22;;;14.20;99.90;;;;;;5023341;28;20030;-81
2022/06/07 04:51:05;;;;;;;2.65;2.10;;;14.40;99.90;;;;;;5022135;28;20033;-81
2022/06/07 04:53:31;;;;;;;3.13;2.00;;;14.50;99.90;;;;;;5025127;28;20404;-81
2022/06/07 04:55:58;;;;;;;3.38;2.10;;;14.70;99.90;;;;;;5020509;28;20042;-81
2022/06/07 04:58:24;;;;;;;3.90;2.40;;;14.90;99.90;;;;;;5022008;28;20029;-81
2022/06/07 05:00:50;;;;;;;2.45;2.10;;;;;;;;;;5018650;28;20029;-80
2022/06/07 05:03:15;;;;;;;4.32;2.10;;;15.40;99.90;;;;;;5025258;28;20421;-80
2022/06/07 05:05:41;;;;;;;5.15;1.80;;;15.60;99.90;;;;;;5018385;28;20018;-80
2022/06/07 05:08:06;;;;;;;3.80;1.55;;;15.90;99.90;;;;;;5026718;28;20478;-80
2022/06/07 05:10:32;;;;;;;5.45;1.67;;;16.00;99.90;;;;;;5018532;28;20032;-81
2022/06/07 05:12:57;;;;;;;3.92;2.30;;;16.00;99.90;;;;;;5012583;28;20041;-81
2022/06/07 05:15:23;;;;;;;2.75;1.63;;;16.00;99.90;;;;;;5022170;28;20055;-81
2022/06/07 05:17:49;;;;;;;8.05;1.77;;;15.90;99.90;;;;;;5024028;28;20021;-81
2022/06/07 05:20:14;;;;;;;7.95;1.75;;;15.80;99.90;;;;;;5015333;28;20513;-81
2022/06/07 05:22:40;;;;;;;4.40;2.00;;;15.70;99.90;;;;;;5019623;28;20065;-81
2022/06/07 05:25:06;;;;;;;1.73;1.63;;;15.70;99.90;;;;;;5023355;28;20042;-81
2022/06/07 05:27:38;;;;;;;3.28;1.80;;;15.80;99.90;;;;;;5012249;28;20478;-81
2022/06/07 05:30:05;;;;;;;2.35;1.40;;;16.00;99.90;;;;;;5023010;28;20199;-81
2022/06/07 05:32:30;;;;;;;2.47;1.63;;;16.20;99.90;;;;;;5027345;28;20116;-81
2022/06/07 05:34:56;;;;;;;2.45;1.42;;;16.30;99.90;;;;;;5021379;28;20105;-80
2022/06/07 05:37:22;;;;;;;2.75;1.50;;;16.40;99.90;;;;;;5012989;28;20033;-81
2022/06/07 05:39:48;;;;;;;3.22;1.83;;;16.50;99.90;;;;;;5008745;28;20057;-81
2022/06/07 05:42:16;;;;;;;2.67;1.60;;;16.60;99.90;;;;;;5023795;28;20490;-81
2022/06/07 05:44:42;;;;;;;4.57;1.80;;;16.70;99.90;;;;;;5028712;28;20025;-80
2022/06/07 05:47:09;;;;;;;4.18;2.00;;;16.80;99.90;;;;;;5028112;28;20482;-81
2022/06/07 05:49:35;;;;;;;5.45;1.60;;;16.90;99.90;;;;;;5026661;28;20096;-80
2022/06/07 05:52:01;;;;;;;2.90;1.80;;;17.10;99.90;;;;;;5024715;28;20445;-80
2022/06/07 05:54:29;;;;;;;2.28;1.55;;;17.20;99.90;;;;;;5029576;28;20037;-81
2022/06/07 05:56:55;;;;;;;5.55;1.92;;;17.20;99.90;;;;;;5021183;28;20040;-80
2022/06/07 05:59:21;;;;;;;3.22;1.55;;;17.30;99.90;;;;;;5023835;28;20026;-81
2022/06/07 06:01:46;;;;;;;6.00;1.80;;;17.30;99.90;;;;;;5026898;28;20808;-81
2022/06/07 06:04:12;;;;;;;2.20;1.55;;;17.40;99.90;;;;;;5022665;28;20053;-81
2022/06/07 06:06:38;;;;;;;4.72;2.00;;;17.40;99.90;;;;;;5027125;28;20036;-81
2022/06/07 06:11:49;;;;;;;4.93;1.67;;;17.50;99.90;;;;;;5028818;28;20091;-81
2022/06/07 06:14:15;;;;;;;2.65;1.42;;;17.60;99.90;;;;;;5020070;28;20033;-80
2022/06/07 06:16:40;;;;;;;1.90;1.30;;;17.80;99.90;;;;;;5024717;28;20477;-81
2022/06/07 06:19:06;;;;;;;2.28;1.30;;;17.90;99.90;;;;;;5023904;28;20246;-79
2022/06/07 06:21:35;;;;;;;4.90;1.75;;;18.10;99.90;;;;;;5020515;28;20516;-82
2022/06/07 06:24:02;;;;;;;2.55;1.40;;;18.20;99.90;;;;;;5027694;28;20037;-82
2022/06/07 06:26:28;;;;;;;2.25;1.23;;;18.30;99.90;;;;;;5019289;28;20052;-81
2022/06/07 06:28:54;;;;;;;2.88;1.35;;;18.40;99.90;;;;;;5021886;28;20092;-82
2022/06/07 06:31:20;;;;;;;6.43;1.60;;;18.40;99.90;;;;;;5022377;28;20113;-82
2022/06/07 06:33:49;;;;;;;1.85;1.40;;;18.40;99.90;;;;;;5023055;28;20071;-79
2022/06/07 06:36:17;;;;;;;1.35;1.25;;;18.60;99.90;;;;;;5017867;28;20415;-79
2022/06/07 06:38:43;;;;;;;2.70;1.25;;;18.70;99.90;;;;;;5016186;28;20045;-79
2022/06/07 06:41:13;;;;;;;1.83;1.40;;;18.60;99.90;;;;;;5024956;28;20060;-79
2022/06/07 06:43:40;;;;;;;2.33;1.02;;;18.40;99.90;;;;;;5017403;28;20237;-79
2022/06/07 06:46:07;;;;;;;10.43;1.23;;;18.30;99.90;;;;;;5026886;28;20182;-79
2022/06/07 06:48:34;;;;;;;3.15;1.25;;;18.20;99.90;;;;;;5011500;28;20464;-79
2022/06/07 06:51:01;;;;;;;3.70;1.08;;;18.30;99.90;;;;;;5026874;28;20105;-79
2022/06/07 06:53:27;;;;;;;1.30;1.13;;;18.50;99.90;;;;;;5024712;28;20477;-79
2022/06/07 06:55:55;;;;;;;4.25;1.30;;;18.70;99.90;;;;;;5023651;28;20036;-80
2022/06/07 06:58:21;;;;;;;2.97;1.20;;;19.00;99.90;;;;;;5013188;28;20026;-79
2022/06/07 07:00:46;;;;;;;2.95;1.10;;;19.40;99.90;;;;;;5021684;28;20030;-79
2022/06/07 07:03:12;;;;;;;2.25;1.00;;;19.50;99.90;;;;;;5020238;28;20037;-79
2022/06/07 07:05:37;;;;;;;1.80;1.00;;;19.60;99.90;;;;;;5026741;28;20383;-79
2022/06/07 07:08:03;;;;;;;5.15;1.20;;;19.50;99.90;;;;;;5026511;28;20707;-79
2022/06/07 07:10:29;;;;;;;6.55;1.15;;;19.60;99.90;;;;;;5021033;28;20022;-79
2022/06/07 07:12:54;;;;;;;2.58;1.13;;;19.40;99.90;;;;;;5020607;28;20490;-80
2022/06/07 07:15:20;;;;;;;3.17;1.17;;;19.20;99.90;;;;;;5025047;28;20104;-80
2022/06/07 07:17:47;;;;;;;4.13;1.10;;;19.00;99.90;;;;;;5025643;28;20028;-80
2022/06/07 07:20:13;;;;;;;4.70;1.10;;;18.80;99.90;;;;;;5026737;28;20088;-80
2022/06/07 07:22:39;;;;;;;2.67;1.38;;;18.60;99.90;;;;;;5016369;28;20021;-80
2022/06/07 07:25:06;;;;;;;1.90;1.00;;;18.50;99.90;;;;;;5017425;28;20187;-80
2022/06/07 07:27:32;;;;;;;2.70;1.20;;;18.50;99.90;;;;;;5021640;28;20551;-80
2022/06/07 07:29:58;;;;;;;3.05;1.08;;;18.70;99.90;;;;;;5014624;28;20033;-80
2022/06/07 07:32:24;;;;;;;4.00;0.98;;;18.90;99.90;;;;;;5027026;28;20053;-81
2022/06/07 07:34:50;;;;;;;1.60;0.90;;;19.00;99.90;;;;;;5023448;28;20037;-80
2022/06/07 07:37:17;;;;;;;2.00;0.80;;;19.00;99.90;;;;;;5025972;28;20055;-80
2022/06/07 07:39:43;;;;;;;1.80;0.88;;;18.90;99.90;;;;;;5018722;28;20025;-80
2022/06/07 07:42:08;;;;;;;2.10;0.90;;;18.90;99.90;;;;;;5021052;28;20386;-81
2022/06/07 07:44:34;;;;;;;7.80;1.30;;;19.10;99.90;;;;;;5015092;28;20045;-81
2022/06/07 07:46:59;;;;;;;3.15;1.08;;;19.60;99.90;;;;;;5007718;28;20134;-80
2022/06/07 07:49:25;;;;;;;2.33;0.90;;;19.90;99.90;;;;;;5021918;28;20026;-80
2022/06/07 07:51:53;;;;;;;3.03;1.10;;;20.30;99.90;;;;;;5023862;28;20036;-81
2022/06/07 07:54:20;;;;;;;5.05;1.30;;;20.60;99.90;;;;;;5009862;28;20184;-81
2022/06/07 07:56:46;;;;;;;3.22;1.20;;;20.90;99.90;;;;;;5025235;28;20430;-81
2022/06/07 07:59:15;;;;;;;4.60;1.10;;;21.20;99.90;;;;;;5028559;28;20056;-83
2022/06/07 08:01:42;;;;;;;3.03;1.10;;;21.40;99.90;;;;;;5022947;28;20037;-80
2022/06/07 08:04:09;;;;;;;2.38;0.73;;;21.60;99.90;;;;;;5025041;28;20021;-80
2022/06/07 08:06:35;;;;;;;1.02;0.60;;;21.80;99.90;;;;;;5026819;28;20025;-80
2022/06/07 08:09:02;;;;;;;2.03;0.70;;;22.10;99.80;;;;;;5019837;28;20390;-79
2022/06/07 08:11:32;;;;;;;4.78;0.70;;;22.40;97.00;;;;;;5007549;28;20038;-81
2022/06/07 08:13:58;;;;;;;3.63;0.82;;;22.40;95.00;;;;;;5008190;28;20041;-81
2022/06/07 08:16:25;;;;;;;3.08;0.73;;;22.40;93.90;;;;;;5025125;28;20056;-80
2022/06/07 08:18:50;;;;;;;3.70;0.80;;;22.30;94.70;;;;;;5024746;28;20025;-80
2022/06/07 08:21:24;;;;;;;2.47;0.60;;;22.40;94.30;;;;;;5008768;28;20105;-80
2022/06/07 08:23:50;;;;;;;3.85;0.77;;;22.50;93.90;;;;;;5017282;28;20041;-80
2022/06/07 08:26:17;;;;;;;1.33;0.50;;;22.50;92.30;;;;;;5025764;28;20392;-80
2022/06/07 08:28:44;;;;;;;3.92;0.60;;;22.60;92.00;;;;;;5019074;28;20053;-80
2022/06/07 08:31:12;;;;;;;2.38;0.60;;;22.60;92.00;;;;;;5025776;28;20450;-80
2022/06/07 08:39:07;;;;;;;2.63;0.60;;;22.50;90.00;;;;;;5006142;28;20040;-80
2022/06/07 08:41:40;;;;;;;1.92;0.80;;;22.00;87.20;;;;;;5017101;28;20032;-80
2022/06/07 08:44:12;;;;;;;2.67;0.80;;;21.80;89.90;;;;;;5022634;28;20053;-80
2022/06/07 08:46:39;;;;;;;1.27;0.70;;;21.80;89.90;;;;;;5018660;28;20033;-80
2022/06/07 08:49:06;;;;;;;2.83;0.60;;;21.60;90.30;;;;;;5017812;28;20303;-80
2022/06/07 08:52:19;;;;;;;4.80;0.80;;;21.60;90.80;;;;;;5015573;28;20438;-80
2022/06/07 08:54:45;;;;;;;1.55;0.57;;;21.50;89.40;;;;;;4982489;28;20108;-82
2022/06/07 08:57:16;;;;;;;2.22;0.77;;;21.30;90.70;;;;;;5024851;28;20037;-85
2022/06/07 08:59:46;;;;;;;3.08;0.60;;;21.40;90.60;;;;;;5020434;28;20057;-85
2022/06/07 09:02:39;;;;;;;1.08;0.50;;;21.80;90.80;;;;;;5006645;28;20640;-85
2022/06/07 09:05:05;;;;;;;3.08;0.65;;;22.10;88.70;;;;;;5010670;28;20790;-85
2022/06/07 09:07:30;;;;;;;1.48;0.55;;;22.60;87.10;;;;;;5006374;28;20061;-85
2022/06/07 09:13:01;;;;;;;2.60;0.65;;;22.60;83.90;;;;;;5015582;28;20036;-85
2022/06/07 09:15:30;;;;;;;0.88;0.50;;;22.30;83.40;;;;;;5012284;28;20064;-85
2022/06/07 09:17:58;;;;;;;1.60;0.70;;;22.20;84.70;;;;;;5007262;28;20486;-85
2022/06/07 09:20:48;;;;;;;5.05;0.57;;;22.00;87.10;;;;;;5002756;28;20050;-85
2022/06/07 09:23:36;;;;;;;2.40;0.57;;;22.00;88.90;;;;;;5006407;28;20037;-84
2022/06/07 09:26:13;;;;;;;1.15;0.60;;;22.30;86.40;;;;;;5012934;28;20026;-75
2022/06/07 09:28:39;;;;;;;0.82;0.52;;;22.10;82.70;;;;;;5014006;28;20021;-74
2022/06/07 09:31:20;;;;;;;3.17;0.63;;;21.90;84.30;;;;;;5024871;28;20686;-74
2022/06/07 09:33:53;;;;;;;3.03;0.57;;;22.00;86.90;;;;;;5021306;28;20156;-75
2022/06/07 09:36:30;;;;;;;1.90;0.70;;;22.20;88.40;;;;;;5012740;28;20083;-75
2022/06/07 09:39:00;;;;;;;0.90;0.50;;;22.60;89.00;;;;;;5017045;28;20029;-74
2022/06/07 09:41:39;;;;;;;1.65;0.50;;;22.80;84.40;;;;;;5017627;28;20116;-74
2022/06/07 09:44:25;;;;;;;1.95;0.80;;;22.70;83.10;;;;;;5022817;28;20058;-74
2022/06/07 09:46:58;;;;;;;3.08;0.70;;;22.50;86.30;;;;;;5006376;28;20026;-75
2022/06/07 09:49:37;;;;;;;1.10;0.70;;;22.60;87.30;;;;;;5018451;28;20022;-74
2022/06/07 09:52:13;;;;;;;4.22;0.70;;;22.70;87.80;;;;;;5012940;28;20433;-75
2022/06/07 09:54:43;;;;;;;2.05;0.80;;;22.90;86.10;;;;;;5009056;28;20615;-76
2022/06/07 09:57:32;;;;;;;0.68;0.68;;;22.70;84.70;;;;;;5023938;28;20033;-75
2022/06/07 10:00:20;;;;;;;2.25;0.57;;;22.60;86.50;;;;;;5010245;28;20113;-74
2022/06/07 10:03:28;;;;;;;2.15;0.68;;;22.90;84.30;;;;;;5013371;28;20029;-74
2022/06/07 10:06:07;;;;;;;3.92;0.50;;;23.10;84.80;;;;;;4944105;29;20054;-74
2022/06/07 10:08:41;;;;;;;2.38;0.50;;;23.20;83.40;;;;;;4935979;28;20508;-74
2022/06/07 10:11:16;;;;;;;3.25;0.90;;;23.10;83.50;;;;;;4988361;28;20453;-74
2022/06/07 10:13:49;;;;;;;3.90;0.90;;;22.80;82.20;;;;;;5025246;28;20040;-74
2022/06/07 10:16:31;;;;;;;2.05;0.85;;;22.60;81.90;;;;;;5018878;28;20515;-74
2022/06/07 10:19:03;;;;;;;1.88;0.60;;;22.50;86.50;;;;;;5026074;28;20041;-74
2022/06/07 10:21:50;;;;;;;1.92;0.60;;;22.40;85.80;;;;;;5029265;28;20037;-74
2022/06/07 10:24:31;;;;;;;1.42;0.70;;;22.40;86.00;;;;;;5023846;28;20508;-74
2022/06/07 10:27:34;;;;;;;5.97;0.80;;;22.30;87.50;;;;;;5027356;28;20045;-74
2022/06/07 10:30:17;;;;;;;3.27;0.70;;;22.20;87.00;;;;;;5014352;28;20021;-74
2022/06/07 10:33:13;;;;;;;0.68;0.50;;;22.20;87.70;;;;;;5026776;28;20299;-74
2022/06/07 10:35:56;;;;;;;1.80;0.43;;;22.60;89.40;;;;;;5028858;28;20088;-74
2022/06/07 10:38:28;;;;;;;1.23;0.50;;;22.70;83.00;;;;;;5026764;28;20026;-74
2022/06/07 10:40:59;;;;;;;1.33;0.50;;;22.70;82.40;;;;;;5028962;28;20041;-74
2022/06/07 10:43:44;;;;;;;2.15;0.60;;;22.80;80.70;;;;;;5020461;28;20065;-75
2022/06/07 10:46:14;;;;;;;3.53;0.60;;;22.90;79.60;;;;;;4341323;28;10001627;-75
2022/06/07 10:48:48;;;;;;;0.77;0.40;;;23.20;80.00;;;;;;5031494;28;20255;-75
2022/06/07 10:54:14;;;;;;;0.85;0.40;;;23.50;78.60;;;;;;5042346;28;20116;-75
2022/06/07 10:56:46;;;;;;;1.00;0.60;;;23.60;76.10;;;;;;5039920;28;20657;-75
2022/06/07 10:59:20;;;;;;;2.05;0.60;;;23.80;78.50;;;;;;5038238;28;20119;-75
2022/06/07 11:01:50;;;;;;;1.52;0.40;;;24.00;77.60;;;;;;5039933;28;20405;-74
2022/06/07 11:10:24;;;;;;;0.52;0.40;;;24.60;70.50;;;;;;5029795;28;20060;-75
2022/06/07 11:13:16;;;;;;;0.40;0.40;;;24.70;71.10;;;;;;5034666;28;20362;-73
2022/06/07 11:15:51;;;;;;;1.10;0.50;;;24.90;73.80;;;;;;5034375;28;20028;-74
2022/06/07 11:18:20;;;;;;;2.13;0.40;;;25.10;70.60;;;;;;5005122;28;20049;-74
2022/06/07 11:21:00;;;;;;;2.95;0.70;;;25.20;71.10;;;;;;5019062;28;20034;-74
2022/06/07 11:23:33;;;;;;;2.22;0.50;;;25.20;72.80;;;;;;5021843;28;20057;-74
2022/06/07 11:26:14;;;;;;;1.40;0.43;;;25.10;71.60;;;;;;5024567;28;20125;-74
2022/06/07 11:28:39;;;;;;;2.67;0.50;;;24.90;73.20;;;;;;5015072;28;20021;-75
2022/06/07 11:31:23;;;;;;;3.95;0.40;;;24.70;71.70;;;;;;5024425;28;20022;-75
2022/06/07 11:33:52;;;;;;;2.03;0.45;;;24.70;71.80;;;;;;5014237;28;20139;-75
2022/06/07 11:36:22;;;;;;;1.90;0.60;;;24.80;70.90;;;;;;5014232;28;20030;-76
2022/06/07 11:38:57;;;;;;;1.80;0.45;;;24.70;68.10;;;;;;5014756;28;20568;-76
2022/06/07 11:41:37;;;;;;;2.05;0.40;;;24.60;68.10;;;;;;5016901;28;20120;-74
2022/06/07 11:44:11;;;;;;;1.00;0.40;;;24.50;70.00;;;;;;5015726;28;20231;-75
2022/06/07 11:46:50;;;;;;;1.15;0.60;;;24.70;70.90;;;;;;5024455;28;20073;-76
2022/06/07 11:49:24;;;;;;;2.63;0.40;;;25.00;71.70;;;;;;5016674;28;20061;-73
2022/06/07 11:52:13;;;;;;;1.25;0.38;;;25.30;71.30;;;;;;5022173;28;20080;-74
2022/06/07 11:54:53;;;;;;;1.85;0.40;;;25.30;69.90;;;;;;5010055;28;20429;-74
2022/06/07 11:57:32;;;;;;;4.57;0.60;;;25.10;67.90;;;;;;5024235;28;20126;-73
2022/06/07 12:00:23;;;;;;;1.40;0.60;;;25.00;69.90;;;;;;5022743;28;20045;-74
2022/06/07 12:03:00;;;;;;;1.25;0.45;;;24.90;68.80;;;;;;5018431;28;20699;-74
2022/06/07 12:05:32;;;;;;;1.85;0.40;;;24.80;69.30;;;;;;5005246;28;20375;-74
2022/06/07 12:08:19;;;;;;;3.53;0.47;;;24.60;70.40;;;;;;5007138;28;20029;-74
2022/06/07 12:11:21;;;;;;;3.35;0.50;;;24.40;69.30;;;;;;5020819;28;20021;-74
2022/06/07 12:13:56;;;;;;;0.95;0.45;;;24.50;72.70;;;;;;5020738;28;20029;-75
2022/06/07 12:16:24;;;;;;;2.55;0.40;;;24.80;69.00;;;;;;5021526;28;20112;-74
2022/06/07 12:18:55;;;;;;;1.58;0.30;;;25.10;67.70;;;;;;5009254;28;20161;-75
2022/06/07 12:21:22;;;;;;;1.70;0.52;;;25.00;68.90;;;;;;5018662;28;20443;-75
2022/06/07 12:23:50;;;;;;;2.22;0.50;;;24.80;68.40;;;;;;5009007;28;20182;-74
2022/06/07 12:26:26;;;;;;;1.00;0.30;;;24.60;68.80;;;;;;5022235;28;20029;-73
2022/06/07 12:28:59;;;;;;;1.20;0.40;;;24.40;68.00;;;;;;5014534;28;20044;-74
2022/06/07 12:31:37;;;;;;;1.52;0.45;;;24.10;68.50;;;;;;5014926;28;20057;-73
2022/06/07 12:34:22;;;;;;;5.93;0.50;;;24.00;69.90;;;;;;5014058;28;20068;-72
2022/06/07 12:36:52;;;;;;;3.03;0.50;;;23.80;71.40;;;;;;5015252;28;20041;-72
2022/06/07 12:39:19;;;;;;;4.20;0.70;;;23.50;72.60;;;;;;5002305;28;20334;-72
2022/06/07 12:41:52;;;;;;;0.93;0.43;;;23.30;72.40;;;;;;5016310;28;20060;-72
2022/06/07 12:44:25;;;;;;;2.58;0.60;;;23.10;74.40;;;;;;5016830;28;20270;-72
2022/06/07 12:46:51;;;;;;;3.80;0.80;;;22.80;75.60;;;;;;5008803;28;20033;-73
2022/06/07 12:49:27;;;;;;;2.40;0.60;;;22.60;77.80;;;;;;5002085;28;20072;-73
2022/06/07 12:52:04;;;;;;;3.80;0.50;;;22.50;77.20;;;;;;5015960;28;20049;-73
2022/06/07 12:54:33;;;;;;;2.60;0.50;;;22.40;76.80;;;;;;5007499;28;20037;-72
2022/06/07 12:57:04;;;;;;;2.60;0.55;;;22.30;77.40;;;;;;5015621;28;20191;-72
2022/06/07 12:59:39;;;;;;;1.67;0.45;;;22.30;77.20;;;;;;5003497;28;20025;-72
2022/06/07 13:02:15;;;;;;;1.48;0.57;;;22.30;77.30;;;;;;5009620;28;20509;-72
2022/06/07 13:04:50;;;;;;;3.03;0.50;;;22.30;78.00;;;;;;5004327;28;20080;-73
2022/06/07 13:07:24;;;;;;;2.05;0.50;;;22.40;78.50;;;;;;5022833;28;20041;-72
2022/06/07 13:09:56;;;;;;;;;;;22.50;77.50;;;;;;5009110;28;20075;-72
2022/06/07 13:12:31;;;;;;;1.13;0.57;;;22.60;78.20;;;;;;5013683;28;19963;-71
2022/06/07 13:14:58;;;;;;;1.25;0.45;;;22.80;77.60;;;;;;5017875;28;20037;-73
2022/06/07 13:17:33;;;;;;;1.65;0.50;;;22.10;78.50;;;;;;5022478;28;20560;-73
2022/06/07 13:20:01;;;;;;;1.40;0.47;;;23.70;78.50;;;;;;5004414;28;20022;-74
2022/06/07 13:22:30;;;;;;;1.48;0.50;;;23.80;75.40;;;;;;5006907;28;20386;-74
2022/06/07 13:25:16;;;;;;;5.07;0.50;;;23.80;74.40;;;;;;5021594;28;20022;-73
2022/06/07 13:27:45;;;;;;;1.73;0.30;;;23.70;90.90;;;;;;5023433;28;20036;-75
2022/06/07 13:30:11;;;;;;;0.90;0.50;;;;;;;;;;5005819;28;20030;-73